Time;durP1;ratioP1;P1;durP2;ratioP2;P2;SDS_P1;SDS_P2;PMS_P1;PMS_P2;Temp;Humidity;BMP_temperature;BMP_pressure;BME280_temperature;BME280_humidity;BME280_pressure;Samples;Min_cycle;Max_cycle;Signal;HPM_P1;HPM_P2
2023/06/21 00:01:31;;;;;;;11.88;5.88;;;;;;;17.92;nan;18849.84;5091864;28;20224;-60
2023/06/21 00:04:00;;;;;;;11.70;6.63;;;;;;;17.90;nan;15910.06;5092120;28;20193;-60
2023/06/21 00:06:29;;;;;;;9.55;5.75;;;;;;;17.53;nan;14591.78;5092191;28;20561;-60
2023/06/21 00:08:57;;;;;;;10.55;5.80;;;;;;;17.47;nan;12308.44;5091368;28;20184;-60
2023/06/21 00:11:23;;;;;;;9.82;5.78;;;;;;;17.72;nan;10361.09;5090882;28;20179;-59
2023/06/21 00:13:52;;;;;;;11.57;6.35;;;;;;;17.77;nan;9385.38;5092056;28;20173;-59
2023/06/21 00:16:17;;;;;;;9.38;5.35;;;;;;;17.50;nan;8727.34;5091661;28;20169;-60
2023/06/21 00:18:43;;;;;;;10.68;6.10;;;;;;;17.50;nan;8727.34;5091968;28;20550;-59
2023/06/21 00:21:08;;;;;;;9.50;6.13;;;;;;;17.47;nan;8401.00;5091597;28;20645;-59
2023/06/21 00:23:33;;;;;;;10.48;5.80;;;;;;;17.46;nan;7424.78;5091521;28;20273;-60
2023/06/21 00:25:59;;;;;;;10.82;5.55;;;;;;;17.72;nan;9384.03;5092171;28;20617;-59
2023/06/21 00:28:24;;;;;;;11.25;6.25;;;;;;;17.50;nan;9703.88;5091594;28;20165;-60
2023/06/21 00:30:50;;;;;;;10.18;5.63;;;;;;;17.69;nan;8732.03;5091723;28;20712;-59
2023/06/21 00:33:16;;;;;;;8.93;5.80;;;;;;;17.44;nan;9376.72;5092221;28;20216;-58
2023/06/21 00:35:42;;;;;;;12.02;6.70;;;;;;;17.04;nan;8390.19;5091489;28;20672;-59
2023/06/21 00:38:07;;;;;;;10.38;6.07;;;;;;;17.60;nan;7753.53;5091183;28;20264;-59
2023/06/21 00:40:32;;;;;;;11.02;5.95;;;;;;;17.58;nan;9054.94;5091549;28;20257;-60
2023/06/21 00:42:58;;;;;;;10.07;6.32;;;;;;;17.62;nan;11987.19;5091823;28;20165;-59
2023/06/21 00:45:24;;;;;;;11.02;6.53;;;;;;;17.89;nan;13952.19;5092068;28;20158;-59
2023/06/21 00:47:49;;;;;;;9.52;6.20;;;;;;;17.78;nan;15579.41;5091741;28;20165;-60
2023/06/21 00:50:16;;;;;;;12.10;6.50;;;;;;;18.02;nan;22777.28;5091573;28;20170;-59
2023/06/21 00:52:44;;;;;;;10.93;5.90;;;;;;;17.90;nan;25716.19;5091249;28;20197;-60
2023/06/21 00:55:12;;;;;;;9.88;5.80;;;;;;;18.15;nan;30644.94;5091548;28;20166;-62
2023/06/21 00:57:38;;;;;;;11.85;5.68;;;;;;;18.15;nan;35568.31;5091411;28;20192;-59
2023/06/21 01:00:05;;;;;;;11.63;6.50;;;;;;;17.95;nan;34569.75;5090419;28;20173;-60
2023/06/21 01:02:31;;;;;;;11.77;6.75;;;;;;;17.77;nan;32261.16;5091770;28;20287;-59
2023/06/21 01:04:57;;;;;;;10.82;6.20;;;;;;;17.77;nan;30621.66;5091448;28;20640;-60
2023/06/21 01:07:52;;;;;;;11.07;6.10;;;;;;;18.08;nan;41315.44;5091215;28;20640;-60
2023/06/21 01:10:39;;;;;;;9.20;5.68;;;;;;;18.04;nan;40346.13;5093845;28;20197;-59
2023/06/21 01:13:27;;;;;;;10.15;6.05;;;;;;;17.87;nan;36533.69;5094898;28;20200;-59
2023/06/21 01:16:01;;;;;;;9.48;5.93;;;;;;;17.84;nan;34561.88;5095205;28;20195;-60
2023/06/21 01:18:28;;;;;;;9.57;6.15;;;;;;;17.69;nan;29634.00;5094742;28;20157;-59
2023/06/21 01:20:57;;;;;;;9.68;5.43;;;;;;;17.69;nan;29306.09;5094746;28;20648;-60
2023/06/21 01:23:25;;;;;;;9.75;5.70;;;;;;;17.64;nan;27993.72;5094801;28;20169;-60
2023/06/21 01:26:24;;;;;;;14.05;6.70;;;;;;;17.62;nan;25373.91;5094453;28;20173;-60
2023/06/21 01:29:06;;;;;;;12.68;6.50;;;;;;;17.63;nan;24393.34;5094924;28;20166;-59
2023/06/21 01:31:32;;;;;;;9.57;5.63;;;;;;;17.46;nan;27656.00;5094896;28;20162;-59
2023/06/21 01:33:59;;;;;;;11.45;6.30;;;;;;;17.63;nan;28320.56;5094800;28;20162;-59
2023/06/21 01:36:25;;;;;;;10.27;5.57;;;;;;;17.75;nan;29309.69;5094392;28;20208;-59
2023/06/21 01:38:57;;;;;;;10.60;5.93;;;;;;;17.55;nan;31591.38;5095213;28;20564;-59
2023/06/21 01:41:28;;;;;;;10.98;6.47;;;;;;;;;;5094741;28;20181;-59
2023/06/21 01:43:53;;;;;;;10.80;5.85;;;;;;;17.63;nan;36188.91;5094931;28;20222;-60
2023/06/21 01:46:21;;;;;;;9.80;6.07;;;;;;;17.72;nan;35209.94;5094109;28;20307;-59
2023/06/21 01:48:47;;;;;;;15.63;6.28;;;;;;;17.57;nan;34544.03;5094275;28;20173;-59
2023/06/21 01:51:13;;;;;;;12.63;6.22;;;;;;;17.31;nan;28956.56;5094276;28;20282;-58
2023/06/21 01:53:39;;;;;;;9.20;5.72;;;;;;;17.47;nan;30275.78;5094684;28;20649;-59
2023/06/21 01:56:13;;;;;;;12.60;6.90;;;;;;;17.34;nan;25358.97;5094410;28;20196;-59
2023/06/21 01:58:39;;;;;;;10.48;6.35;;;;;;;16.92;nan;20112.53;5094075;28;20187;-59
2023/06/21 02:01:05;;;;;;;11.88;6.80;;;;;;;17.09;nan;15228.00;5093868;28;20173;-59
2023/06/21 02:03:33;;;;;;;12.95;6.90;;;;;;;16.97;nan;11316.03;5092520;28;20514;-59
2023/06/21 02:06:02;;;;;;;12.00;5.55;;;;;;;16.91;nan;8712.00;5094040;28;20200;-59
2023/06/21 02:08:28;;;;;;;9.65;5.88;;;;;;;16.21;nan;7070.72;5094231;28;20161;-59
2023/06/21 02:10:54;;;;;;;10.63;6.35;;;;;;;16.76;nan;5134.50;5093864;28;20173;-60
2023/06/21 02:13:19;;;;;;;12.10;6.45;;;;;;;16.68;nan;4158.91;5093884;28;20247;-59
2023/06/21 02:15:46;;;;;;;11.77;6.40;;;;;;;16.43;nan;3181.19;5093803;28;20688;-59
2023/06/21 02:18:12;;;;;;;12.95;6.85;;;;;;;16.27;nan;1881.72;4884153;28;20939;-61
2023/06/21 02:20:38;;;;;;;11.63;6.95;;;;;;;16.64;nan;914.25;4673797;28;20189;-60
2023/06/21 02:23:05;;;;;;;10.85;6.25;;;;;;;16.71;nan;266.69;5093693;28;20231;-60
2023/06/21 02:25:32;;;;;;;9.90;5.88;;;;;;;16.71;nan;590.91;5093761;28;20230;-59
2023/06/21 02:27:58;;;;;;;11.10;6.60;;;;;;;16.67;nan;914.59;5093966;28;20177;-60
2023/06/21 02:30:24;;;;;;;9.80;6.03;;;;;;;16.64;nan;914.19;5093647;28;20204;-59
2023/06/21 02:32:50;;;;;;;10.70;6.72;;;;;;;16.60;nan;1237.97;5093232;28;20714;-59
2023/06/21 02:35:15;;;;;;;10.73;5.82;;;;;;;16.79;nan;5459.75;5093720;28;20237;-59
2023/06/21 02:37:41;;;;;;;10.80;6.28;;;;;;;16.43;nan;4803.34;5093716;28;20204;-59
2023/06/21 02:40:10;;;;;;;12.35;6.13;;;;;;;16.47;nan;5128.56;5093629;28;20170;-60
2023/06/21 02:42:36;;;;;;;12.40;6.28;;;;;;;16.57;nan;3507.91;5093340;28;20663;-59
2023/06/21 02:45:01;;;;;;;12.30;6.97;;;;;;;16.30;nan;2854.78;5093099;28;20249;-59
2023/06/21 02:47:27;;;;;;;9.13;6.05;;;;;;;16.62;nan;2211.09;5091929;28;20268;-59
2023/06/21 02:49:52;;;;;;;10.48;6.30;;;;;;;16.61;nan;2210.94;5092791;28;20181;-58
2023/06/21 02:52:19;;;;;;;10.55;6.20;;;;;;;16.58;nan;2210.56;5092640;28;20200;-58
2023/06/21 02:54:44;;;;;;;10.50;6.35;;;;;;;16.69;nan;2212.16;5091428;28;20662;-59
2023/06/21 02:57:10;;;;;;;9.88;6.55;;;;;;;16.54;nan;3183.03;5092315;28;20201;-60
2023/06/21 02:59:36;;;;;;;11.80;6.72;;;;;;;16.83;nan;6110.13;5092371;28;20682;-59
2023/06/21 03:02:02;;;;;;;11.20;6.35;;;;;;;17.43;nan;11004.16;5091761;28;20260;-59
2023/06/21 03:04:27;;;;;;;10.88;6.18;;;;;;;17.92;nan;16890.34;5092046;28;20212;-60
2023/06/21 03:06:53;;;;;;;11.73;6.63;;;;;;;18.38;nan;27708.03;5092226;28;20212;-59
2023/06/21 03:09:19;;;;;;;10.30;6.10;;;;;;;18.91;nan;41394.13;5092794;28;20182;-60
2023/06/21 03:11:46;;;;;;;10.15;5.78;;;;;;;19.40;nan;52001.50;5092339;28;20173;-59
2023/06/21 03:14:12;;;;;;;11.82;6.60;;;;;;;20.07;nan;55321.28;5092132;28;20177;-60
2023/06/21 03:16:37;;;;;;;9.20;6.10;;;;;;;20.69;nan;57915.53;5091849;28;20359;-59
2023/06/21 03:19:02;;;;;;;12.40;5.90;;;;;;;21.07;nan;59199.09;5091687;28;20260;-60
2023/06/21 03:21:28;;;;;;;11.30;5.68;;;;;;;;;;5091724;28;20230;-60
2023/06/21 03:23:53;;;;;;;8.20;5.32;;;;;;;22.34;nan;60650.38;5092427;28;20197;-61
2023/06/21 03:26:19;;;;;;;8.57;5.38;;;;;;;22.95;nan;60956.47;5092459;28;20212;-59
2023/06/21 03:28:44;;;;;;;10.75;6.10;;;;;;;23.59;nan;61325.00;5091098;28;20545;-59
2023/06/21 03:31:10;;;;;;;9.50;5.30;;;;;;;24.06;nan;61524.13;5092307;28;20181;-59
2023/06/21 03:33:35;;;;;;;10.73;5.50;;;;;;;24.96;nan;62133.97;5092038;28;20201;-61
2023/06/21 03:36:00;;;;;;;11.77;5.55;;;;;;;25.21;nan;62180.16;5092641;28;20220;-60
2023/06/21 03:38:26;;;;;;;7.50;5.15;;;;;;;25.91;nan;62424.38;5091504;28;20176;-63
2023/06/21 03:40:51;;;;;;;9.95;5.38;;;;;;;26.48;nan;62417.63;5092644;28;20695;-60
2023/06/21 03:43:17;;;;;;;9.60;5.38;;;;;;;26.86;nan;62487.28;5092217;28;20173;-60
2023/06/21 03:45:42;;;;;;;8.57;5.65;;;;;;;27.47;nan;62561.72;5091800;28;20182;-60
2023/06/21 03:48:08;;;;;;;8.80;5.10;;;;;;;28.01;nan;62638.72;5092050;28;20173;-60
2023/06/21 03:50:34;;;;;;;8.77;5.13;;;;;;;28.46;nan;62992.13;5090811;28;20233;-60
2023/06/21 03:53:00;;;;;;;8.55;5.30;;;;;;;28.64;nan;62828.13;5092132;28;20219;-60
2023/06/21 03:55:25;;;;;;;8.60;5.07;;;;;;;29.12;nan;62795.22;5091689;28;20644;-60
2023/06/21 03:57:51;;;;;;;9.15;5.07;;;;;;;29.60;nan;62912.94;5092155;28;20188;-60
2023/06/21 04:00:17;;;;;;;7.63;4.88;;;;;;;29.88;nan;62933.97;5091584;28;20205;-61
2023/06/21 04:02:44;;;;;;;9.43;5.22;;;;;;;30.07;nan;62988.03;5091517;28;20223;-59
2023/06/21 04:05:10;;;;;;;9.00;5.18;;;;;;;30.57;nan;63097.16;5091605;28;20181;-61
2023/06/21 04:07:37;;;;;;;9.95;5.50;;;;;;;30.91;nan;63123.09;5092051;28;20177;-60
2023/06/21 04:10:02;;;;;;;7.22;4.88;;;;;;;30.85;nan;63227.06;5090798;28;20212;-61
2023/06/21 04:12:29;;;;;;;8.52;5.32;;;;;;;31.14;nan;63191.84;5089675;28;20244;-60
2023/06/21 04:14:54;;;;;;;8.50;4.95;;;;;;;31.43;nan;63206.16;5091492;28;20183;-60
2023/06/21 04:17:20;;;;;;;7.30;4.80;;;;;;;31.33;nan;63172.94;5090866;28;20182;-61
2023/06/21 04:19:45;;;;;;;7.78;4.60;;;;;;;31.55;nan;63304.00;5092180;28;20176;-60
2023/06/21 04:22:11;;;;;;;9.02;5.60;;;;;;;31.46;nan;63280.41;5091484;28;20531;-61
2023/06/21 04:24:36;;;;;;;7.47;5.05;;;;;;;31.23;nan;63235.97;5091548;28;20204;-61
2023/06/21 04:27:02;;;;;;;7.47;5.03;;;;;;;31.66;nan;63216.25;5091819;28;20183;-61
2023/06/21 04:29:29;;;;;;;7.50;4.75;;;;;;;31.02;nan;63158.97;5092200;28;20210;-60
2023/06/21 04:31:56;;;;;;;6.88;4.60;;;;;;;31.69;nan;63245.56;5090901;28;20705;-61
2023/06/21 04:34:27;;;;;;;11.50;5.43;;;;;;;31.50;nan;63240.66;5091678;28;20224;-63
2023/06/21 04:36:53;;;;;;;8.18;5.32;;;;;;;31.00;nan;63193.59;5091125;28;20203;-62
2023/06/21 04:39:20;;;;;;;7.57;5.40;;;;;;;31.10;nan;63139.13;5092090;28;20193;-60
2023/06/21 04:41:46;;;;;;;7.85;5.28;;;;;;;30.99;nan;63142.84;5090731;28;20177;-60
2023/06/21 04:44:12;;;;;;;9.00;5.93;;;;;;;30.75;nan;63101.47;5092493;28;20249;-61
2023/06/21 04:46:38;;;;;;;8.07;4.93;;;;;;;30.28;nan;63053.81;5094813;28;20173;-60
2023/06/21 04:49:04;;;;;;;7.03;4.53;;;;;;;30.42;nan;63072.53;5095272;28;20525;-60
2023/06/21 04:51:30;;;;;;;9.07;5.63;;;;;;;30.50;nan;63055.38;5094701;28;20565;-61
2023/06/21 04:53:58;;;;;;;8.30;5.70;;;;;;;30.08;nan;63028.16;5095228;28;20192;-63
2023/06/21 04:56:25;;;;;;;10.80;5.60;;;;;;;29.81;nan;62961.34;5094459;28;20198;-62
2023/06/21 04:58:51;;;;;;;8.52;5.40;;;;;;;29.41;nan;62876.47;5095704;28;20263;-62
2023/06/21 05:01:16;;;;;;;9.48;5.88;;;;;;;29.46;nan;62928.50;5094199;28;20759;-59
2023/06/21 05:03:42;;;;;;;8.95;5.78;;;;;;;29.29;nan;62854.19;5095003;28;20235;-60
2023/06/21 05:06:07;;;;;;;8.98;5.60;;;;;;;29.26;nan;63027.78;5094509;28;20219;-61
2023/06/21 05:08:32;;;;;;;9.18;5.57;;;;;;;28.83;nan;62815.16;5093500;28;20244;-61
2023/06/21 05:10:58;;;;;;;10.07;5.68;;;;;;;28.68;nan;62764.31;5093093;28;20169;-61
2023/06/21 05:13:23;;;;;;;11.48;6.82;;;;;;;28.57;nan;62748.50;5093943;28;20712;-61
2023/06/21 05:15:49;;;;;;;7.75;5.40;;;;;;;28.20;nan;62812.41;5094002;28;20552;-60
2023/06/21 05:18:14;;;;;;;7.85;5.35;;;;;;;28.26;nan;62724.63;5093584;28;20796;-59
2023/06/21 05:20:40;;;;;;;10.25;5.60;;;;;;;28.48;nan;62726.19;5094301;28;20181;-60
2023/06/21 05:23:05;;;;;;;7.95;5.22;;;;;;;28.78;nan;62796.84;5093869;28;20176;-59
2023/06/21 05:25:31;;;;;;;7.63;5.43;;;;;;;28.57;nan;62809.00;5093935;28;20276;-61
2023/06/21 05:27:56;;;;;;;7.95;5.15;;;;;;;29.57;nan;62962.19;5093675;28;20181;-60
2023/06/21 05:30:22;;;;;;;8.50;5.68;;;;;;;29.99;nan;62975.63;5094314;28;20169;-60
2023/06/21 05:32:47;;;;;;;7.93;5.07;;;;;;;29.60;nan;62937.22;5093370;28;20204;-61
2023/06/21 05:35:13;;;;;;;7.15;4.65;;;;;;;29.80;nan;62960.19;5093901;28;20212;-60
2023/06/21 05:37:38;;;;;;;8.43;5.03;;;;;;;30.23;nan;62958.38;5093417;28;20177;-60
2023/06/21 05:40:08;;;;;;;7.95;4.82;;;;;;;30.03;nan;62967.03;5094089;28;20177;-61
2023/06/21 05:42:33;;;;;;;9.27;4.80;;;;;;;30.43;nan;63057.28;5086774;28;20180;-61
2023/06/21 05:44:59;;;;;;;8.45;4.55;;;;;;;30.68;nan;63051.75;5094118;28;20225;-60
2023/06/21 05:47:24;;;;;;;7.40;4.82;;;;;;;30.15;nan;63186.53;5093202;28;20184;-61
2023/06/21 05:49:49;;;;;;;7.10;4.80;;;;;;;28.82;nan;62782.44;5093594;28;20188;-60
2023/06/21 05:52:18;;;;;;;8.60;5.03;;;;;;;27.78;nan;62775.28;5092945;28;20291;-61
2023/06/21 05:54:44;;;;;;;8.80;4.85;;;;;;;27.20;nan;62746.03;5091970;28;20228;-60
2023/06/21 05:57:11;;;;;;;8.15;5.63;;;;;;;26.49;nan;62456.03;5092980;28;20597;-62
2023/06/21 05:59:37;;;;;;;8.07;5.10;;;;;;;26.18;nan;62494.53;5093852;28;20200;-61
2023/06/21 06:02:02;;;;;;;8.07;5.38;;;;;;;26.13;nan;62394.50;5092314;28;20668;-63
2023/06/21 06:04:28;;;;;;;11.57;5.38;;;;;;;25.84;nan;62337.81;5093159;28;20177;-62
2023/06/21 06:06:53;;;;;;;8.65;5.25;;;;;;;26.00;nan;62441.94;5093043;28;20169;-61
2023/06/21 06:09:19;;;;;;;7.50;5.20;;;;;;;23.18;nan;63939.16;5084525;28;20169;-62
2023/06/21 06:11:44;;;;;;;7.55;5.25;;;;;;;25.82;nan;62351.25;5092787;28;20173;-61
2023/06/21 06:14:13;;;;;;;8.00;5.03;;;;;;;25.64;nan;62566.28;5093581;28;20264;-61
2023/06/21 06:16:38;;;;;;;6.70;4.65;;;;;;;25.69;nan;62376.25;5093499;28;20238;-62
2023/06/21 06:19:04;;;;;;;7.75;5.03;;;;;;;26.03;nan;62406.09;5093288;28;20170;-62
2023/06/21 06:21:29;;;;;;;9.30;5.72;;;;;;;25.78;nan;62475.53;5092616;28;20569;-62
2023/06/21 06:23:55;;;;;;;8.27;5.32;;;;;;;26.07;nan;62387.06;5092956;28;20179;-63
2023/06/21 06:26:23;;;;;;;7.80;5.28;;;;;;;25.98;nan;62471.66;5092366;28;20180;-62
2023/06/21 06:28:53;;;;;;;7.82;5.18;;;;;;;25.76;nan;62383.66;5088689;28;20648;-62
2023/06/21 06:31:21;;;;;;;7.03;5.00;;;;;;;26.11;nan;62363.41;5092234;28;20177;-61
2023/06/21 06:33:46;;;;;;;7.80;5.43;;;;;;;25.85;nan;62331.66;5092891;28;20252;-59
2023/06/21 06:36:12;;;;;;;8.02;5.50;;;;;;;26.38;nan;62406.78;5092490;28;20699;-61
2023/06/21 06:38:37;;;;;;;7.95;4.90;;;;;;;26.40;nan;62398.00;5092488;28;20238;-60
2023/06/21 06:41:02;;;;;;;7.88;5.13;;;;;;;26.01;nan;62343.53;5091771;28;20199;-61
2023/06/21 06:43:28;;;;;;;7.97;5.32;;;;;;;26.49;nan;62434.50;5092163;28;20183;-61
2023/06/21 06:45:53;;;;;;;8.60;4.63;;;;;;;26.46;nan;62463.09;5092301;28;20662;-62
2023/06/21 06:48:19;;;;;;;7.93;4.90;;;;;;;26.79;nan;62547.44;5091766;28;20648;-60
2023/06/21 06:50:45;;;;;;;8.27;5.10;;;;;;;27.05;nan;62545.19;5092914;28;20252;-61
2023/06/21 06:53:10;;;;;;;7.28;4.72;;;;;;;26.98;nan;62805.34;5091612;28;20220;-61
2023/06/21 06:55:36;;;;;;;8.23;5.20;;;;;;;26.77;nan;62537.31;5092266;28;20209;-60
2023/06/21 06:58:01;;;;;;;7.72;4.57;;;;;;;26.97;nan;62848.78;5091572;28;20192;-62
2023/06/21 07:00:27;;;;;;;7.75;5.00;;;;;;;27.36;nan;62585.88;5092629;28;20173;-62
2023/06/21 07:02:57;;;;;;;6.63;4.53;;;;;;;27.26;nan;62689.94;5090932;28;20229;-62
2023/06/21 07:05:23;;;;;;;6.00;4.13;;;;;;;27.49;nan;62657.97;5092260;28;20576;-62
2023/06/21 07:07:52;;;;;;;6.97;4.35;;;;;;;27.62;nan;62717.50;5090050;28;20193;-61
2023/06/21 07:10:18;;;;;;;6.72;4.65;;;;;;;27.87;nan;62700.94;5092204;28;20178;-61
2023/06/21 07:12:44;;;;;;;8.60;4.65;;;;;;;27.76;nan;62628.50;5091564;28;20205;-61
2023/06/21 07:15:09;;;;;;;6.28;4.60;;;;;;;27.58;nan;62513.34;5092355;28;20192;-60
2023/06/21 07:17:35;;;;;;;7.50;4.65;;;;;;;27.83;nan;62728.47;5091079;28;20609;-60
2023/06/21 07:20:00;;;;;;;6.72;4.57;;;;;;;27.72;nan;62662.75;5090311;28;20195;-58
2023/06/21 07:22:26;;;;;;;7.13;4.50;;;;;;;27.74;nan;62676.13;5091312;28;20177;-59
2023/06/21 07:24:52;;;;;;;6.90;4.82;;;;;;;27.72;nan;62605.53;5091971;28;20269;-60
2023/06/21 07:27:17;;;;;;;8.05;4.60;;;;;;;27.94;nan;62643.84;5091670;28;20226;-61
2023/06/21 07:29:43;;;;;;;6.05;4.55;;;;;;;27.95;nan;62763.22;5091777;28;20181;-60
2023/06/21 07:32:09;;;;;;;5.47;4.30;;;;;;;;;;5091073;28;20704;-59
2023/06/21 07:34:34;;;;;;;8.07;5.18;;;;;;;28.16;nan;62633.75;5092083;28;20216;-59
2023/06/21 07:36:59;;;;;;;6.75;4.13;;;;;;;28.56;nan;62787.38;5091047;28;20282;-60
2023/06/21 07:39:25;;;;;;;6.50;4.78;;;;;;;28.64;nan;62801.81;5091470;28;20185;-59
2023/06/21 07:41:51;;;;;;;7.05;4.50;;;;;;;28.37;nan;62691.97;5090556;28;20221;-59
2023/06/21 07:44:17;;;;;;;6.78;4.75;;;;;;;28.73;nan;62861.56;5091657;28;20230;-60
2023/06/21 07:46:44;;;;;;;7.03;4.65;;;;;;;28.96;nan;62856.41;5090455;28;20226;-60
2023/06/21 07:49:13;;;;;;;7.28;4.90;;;;;;;29.03;nan;62882.88;5091416;28;20176;-60
2023/06/21 07:51:38;;;;;;;8.18;4.63;;;;;;;28.86;nan;62769.16;5090015;28;20185;-60
2023/06/21 07:54:04;;;;;;;6.88;4.80;;;;;;;28.54;nan;62803.50;5090925;28;20603;-60
2023/06/21 07:56:29;;;;;;;7.15;5.30;;;;;;;28.33;nan;62692.66;5091182;28;20260;-60
2023/06/21 07:58:55;;;;;;;7.03;4.65;;;;;;;28.84;nan;62884.72;5091521;28;20165;-60
2023/06/21 08:01:20;;;;;;;8.45;4.95;;;;;;;28.74;nan;62807.47;5090971;28;20259;-60
2023/06/21 08:03:45;;;;;;;7.70;4.95;;;;;;;28.54;nan;62777.19;5091531;28;20161;-59
2023/06/21 08:06:12;;;;;;;8.07;5.25;;;;;;;28.39;nan;62742.16;5091328;28;20267;-60
2023/06/21 08:08:37;;;;;;;7.70;5.20;;;;;;;27.95;nan;62731.69;5091715;28;20547;-60
2023/06/21 08:11:03;;;;;;;6.22;4.60;;;;;;;27.79;nan;62734.38;5091548;28;20260;-61
2023/06/21 08:13:29;;;;;;;6.72;4.78;;;;;;;28.21;nan;62711.00;5091045;28;20193;-60
2023/06/21 08:15:54;;;;;;;8.52;5.32;;;;;;;28.39;nan;62776.34;5091520;28;20249;-59
2023/06/21 08:18:20;;;;;;;7.60;5.07;;;;;;;27.98;nan;62739.81;5091830;28;20173;-61
2023/06/21 08:20:45;;;;;;;6.97;4.95;;;;;;;27.74;nan;62602.00;5095329;28;20177;-60
2023/06/21 08:23:10;;;;;;;7.78;5.13;;;;;;;27.69;nan;62649.38;5095410;28;20248;-60
2023/06/21 08:25:36;;;;;;;8.27;5.15;;;;;;;27.91;nan;62647.72;5095556;28;20172;-59
2023/06/21 08:28:02;;;;;;;6.15;4.47;;;;;;;28.26;nan;62974.38;5095677;28;20170;-60
2023/06/21 08:30:28;;;;;;;7.47;4.80;;;;;;;28.19;nan;62718.66;5095764;28;20226;-60
2023/06/21 08:32:53;;;;;;;9.05;5.07;;;;;;;28.32;nan;62702.00;5095470;28;20200;-60
2023/06/21 08:35:19;;;;;;;7.75;5.00;;;;;;;28.13;nan;62693.97;5095202;28;20181;-60
2023/06/21 08:37:58;;;;;;;7.28;4.95;;;;;;;28.11;nan;62894.63;5095689;28;20605;-60
2023/06/21 08:40:31;;;;;;;8.13;4.88;;;;;;;28.28;nan;62721.09;5094574;28;20173;-60
2023/06/21 08:42:57;;;;;;;6.95;4.68;;;;;;;28.53;nan;62721.38;5095334;28;20165;-61
2023/06/21 08:45:23;;;;;;;7.28;4.43;;;;;;;28.63;nan;62853.28;5095420;28;20169;-61
2023/06/21 08:47:52;;;;;;;6.90;4.88;;;;;;;28.72;nan;62770.97;5095024;28;20663;-61
2023/06/21 08:50:19;;;;;;;7.35;4.75;;;;;;;28.93;nan;62816.69;5095207;28;20668;-60
2023/06/21 08:52:47;;;;;;;5.90;4.43;;;;;;;28.85;nan;62754.31;5093106;28;20544;-61
2023/06/21 08:55:14;;;;;;;6.10;4.13;;;;;;;29.09;nan;62897.06;5093787;28;20189;-61
2023/06/21 08:57:53;;;;;;;6.55;4.18;;;;;;;29.09;nan;62854.94;5095224;28;20169;-60
2023/06/21 09:00:44;;;;;;;6.78;4.40;;;;;;;29.27;nan;62925.66;5094009;28;20199;-60
2023/06/21 09:03:21;;;;;;;6.38;4.47;;;;;;;28.99;nan;62867.75;5089758;28;20228;-61
2023/06/21 09:05:59;;;;;;;6.68;4.68;;;;;;;29.10;nan;62887.69;5094796;28;20250;-60
2023/06/21 09:08:25;;;;;;;6.45;4.53;;;;;;;28.72;nan;62684.72;5094296;28;20211;-59
2023/06/21 09:10:52;;;;;;;6.70;4.28;;;;;;;28.85;nan;62686.47;5095352;28;20279;-61
2023/06/21 09:13:19;;;;;;;5.70;4.10;;;;;;;29.25;nan;62847.56;5094396;28;20219;-61
2023/06/21 09:15:47;;;;;;;5.80;4.18;;;;;;;29.50;nan;62888.88;5094626;28;20185;-60
2023/06/21 09:18:13;;;;;;;6.35;4.35;;;;;;;29.43;nan;62872.94;5094254;28;20204;-60
2023/06/21 09:20:39;;;;;;;5.63;4.20;;;;;;;29.82;nan;62880.22;5093376;28;20184;-61
2023/06/21 09:23:05;;;;;;;5.70;4.30;;;;;;;29.87;nan;62901.22;5094613;28;20259;-61
2023/06/21 09:25:30;;;;;;;5.97;3.70;;;;;;;29.62;nan;63046.97;5094029;28;20733;-61
2023/06/21 09:27:56;;;;;;;5.15;3.78;;;;;;;29.35;nan;62911.72;5095074;28;20181;-60
2023/06/21 09:30:23;;;;;;;5.60;3.75;;;;;;;29.65;nan;62979.28;5092879;28;20189;-60
2023/06/21 09:32:49;;;;;;;4.88;3.47;;;;;;;29.55;nan;62947.28;5094360;28;20201;-60
2023/06/21 09:35:14;;;;;;;5.57;3.85;;;;;;;29.61;nan;62888.31;5092816;28;20192;-62
2023/06/21 09:37:40;;;;;;;5.20;3.85;;;;;;;29.58;nan;63200.47;5094044;28;20173;-62
2023/06/21 09:40:07;;;;;;;4.97;3.65;;;;;;;29.71;nan;62918.25;5093512;28;20177;-61
2023/06/21 09:42:37;;;;;;;4.90;3.28;;;;;;;29.51;nan;62936.84;5094477;28;20192;-60
2023/06/21 09:45:10;;;;;;;4.07;2.95;;;;;;;29.44;nan;63013.69;5093619;28;20264;-61
2023/06/21 09:47:36;;;;;;;5.28;3.60;;;;;;;27.38;nan;62740.44;5094187;28;20185;-61
2023/06/21 09:50:08;;;;;;;4.95;3.58;;;;;;;;;;5092665;28;20180;-60
2023/06/21 09:52:33;;;;;;;4.80;3.22;;;;;;;30.54;nan;63109.53;5093812;28;20291;-60
2023/06/21 09:54:59;;;;;;;4.95;3.65;;;;;;;30.61;nan;63049.00;5092713;28;20244;-61
2023/06/21 09:57:32;;;;;;;3.90;3.22;;;;;;;30.67;nan;63130.34;5093204;28;20186;-61
2023/06/21 09:59:59;;;;;;;4.65;3.20;;;;;;;30.54;nan;63025.69;5093541;28;20635;-60
2023/06/21 10:02:26;;;;;;;5.88;3.42;;;;;;;30.90;nan;63140.41;5093903;28;20232;-60
2023/06/21 10:04:54;;;;;;;6.00;3.60;;;;;;;30.88;nan;63348.78;5091611;28;20187;-60
2023/06/21 10:07:26;;;;;;;5.03;3.40;;;;;;;30.73;nan;63091.22;5093762;28;20783;-60
2023/06/21 10:09:51;;;;;;;4.70;3.40;;;;;;;30.54;nan;63054.13;5088119;28;20172;-60
2023/06/21 10:12:17;;;;;;;4.53;3.42;;;;;;;30.30;nan;63056.09;5093817;28;20238;-60
2023/06/21 10:14:43;;;;;;;5.10;3.47;;;;;;;30.18;nan;62986.91;5092834;28;20173;-61
2023/06/21 10:17:11;;;;;;;4.68;3.20;;;;;;;30.76;nan;63121.66;5093305;28;20605;-61
2023/06/21 10:19:38;;;;;;;5.30;3.45;;;;;;;30.89;nan;63358.41;5091697;28;20177;-60
2023/06/21 10:22:10;;;;;;;4.55;3.30;;;;;;;31.11;nan;63222.16;5093295;28;20189;-60
2023/06/21 10:24:41;;;;;;;5.03;3.25;;;;;;;31.26;nan;63205.06;5092616;28;20191;-59
2023/06/21 10:27:07;;;;;;;3.95;3.17;;;;;;;31.45;nan;63236.94;5093796;28;20533;-60
2023/06/21 10:29:34;;;;;;;5.03;3.28;;;;;;;31.43;nan;63208.25;5092595;28;20202;-60
2023/06/21 10:32:01;;;;;;;4.88;3.33;;;;;;;31.42;nan;63294.88;5093132;28;20169;-62
2023/06/21 10:34:29;;;;;;;4.78;3.42;;;;;;;31.58;nan;63222.31;5092668;28;20184;-60
2023/06/21 10:37:06;;;;;;;4.40;3.05;;;;;;;31.56;nan;63281.38;5092932;28;20172;-60
2023/06/21 10:39:33;;;;;;;4.47;3.17;;;;;;;31.59;nan;63231.97;5092388;28;20177;-59
2023/06/21 10:42:00;;;;;;;4.03;3.10;;;;;;;31.40;nan;63271.41;5092009;28;20255;-60
2023/06/21 10:44:28;;;;;;;4.35;3.30;;;;;;;31.45;nan;63160.91;5091736;28;20216;-61
2023/06/21 10:46:55;;;;;;;4.32;3.25;;;;;;;28.20;nan;63595.28;5093716;28;20366;-59
2023/06/21 10:49:21;;;;;;;4.38;3.03;;;;;;;31.67;nan;63323.16;5092170;28;20218;-60
2023/06/21 10:51:48;;;;;;;4.30;3.13;;;;;;;31.61;nan;63220.47;5092437;28;20238;-60
2023/06/21 10:54:16;;;;;;;7.50;3.67;;;;;;;31.70;nan;63349.81;5089901;28;20212;-60
2023/06/21 10:56:42;;;;;;;4.35;3.17;;;;;;;29.47;nan;62992.84;5090824;28;20211;-59
2023/06/21 10:59:09;;;;;;;4.35;3.20;;;;;;;32.20;nan;63341.41;5091204;28;20173;-60
2023/06/21 11:01:35;;;;;;;4.88;3.08;;;;;;;32.31;nan;63391.16;5082689;28;20221;-59
2023/06/21 11:04:01;;;;;;;4.07;2.80;;;;;;;32.31;nan;63354.09;5091793;28;20192;-60
2023/06/21 11:06:28;;;;;;;5.43;3.70;;;;;;;32.32;nan;63375.84;5092098;28;20180;-60
2023/06/21 11:09:02;;;;;;;7.43;4.10;;;;;;;32.41;nan;63460.94;5092318;28;20621;-60
2023/06/21 11:11:32;;;;;;;8.40;4.78;;;;;;;32.30;nan;63580.53;5092032;28;20165;-60
2023/06/21 11:14:01;;;;;;;6.22;4.05;;;;;;;32.43;nan;63383.22;5091940;28;20238;-59
2023/06/21 11:16:36;;;;;;;5.15;3.38;;;;;;;32.19;nan;63297.91;5092136;28;20180;-61
2023/06/21 11:19:13;;;;;;;5.00;3.83;;;;;;;32.32;nan;63376.41;5092322;28;20616;-59
2023/06/21 11:21:45;;;;;;;4.93;3.40;;;;;;;32.20;nan;63340.81;5092191;28;20214;-59
2023/06/21 11:24:15;;;;;;;6.03;3.28;;;;;;;32.43;nan;63328.22;5092502;28;20207;-60
2023/06/21 11:27:06;;;;;;;5.05;3.58;;;;;;;32.14;nan;63286.84;5091961;28;20587;-60
2023/06/21 11:29:35;;;;;;;4.95;3.22;;;;;;;32.47;nan;63356.09;5091950;28;20211;-60
2023/06/21 11:32:08;;;;;;;5.47;3.67;;;;;;;32.33;nan;63342.59;5091968;28;20161;-61
2023/06/21 11:34:33;;;;;;;4.90;3.40;;;;;;;32.11;nan;63296.63;5091753;28;20800;-61
2023/06/21 11:37:33;;;;;;;5.70;3.85;;;;;;;32.61;nan;63467.56;5090442;28;20177;-61
2023/06/21 11:40:10;;;;;;;4.90;3.50;;;;;;;32.60;nan;63322.84;5091452;28;20176;-61
2023/06/21 11:42:42;;;;;;;5.60;3.35;;;;;;;32.83;nan;63434.72;5091194;28;20184;-60
2023/06/21 11:45:18;;;;;;;4.68;3.25;;;;;;;33.09;nan;63535.13;5092058;28;20176;-60
2023/06/21 11:47:59;;;;;;;10.27;5.88;;;;;;;32.92;nan;63507.53;5091296;28;20180;-59
2023/06/21 11:50:32;;;;;;;9.13;4.85;;;;;;;32.85;nan;63468.81;5091952;28;20169;-60
2023/06/21 11:53:11;;;;;;;6.80;4.65;;;;;;;32.89;nan;63515.25;5091292;28;20195;-60